createdAt,value
2023-06-29T00:00:30.104Z,96299.78
2023-06-29T00:02:57.365Z,96317.25
2023-06-29T00:05:24.573Z,96318.31
2023-06-29T00:07:52.384Z,96316.59
2023-06-29T00:10:19.557Z,96326.91
2023-06-29T00:12:46.675Z,96337.22
2023-06-29T00:15:13.759Z,96333.41
2023-06-29T00:17:40.938Z,96345.56
2023-06-29T00:20:14.266Z,96338.28
2023-06-29T00:22:42.156Z,96342.63
2023-06-29T00:25:09.423Z,96342.69
2023-06-29T00:27:36.502Z,96348.13
2023-06-29T00:30:03.844Z,96349.72
2023-06-29T00:32:31.922Z,96363.25
2023-06-29T00:34:59.105Z,96369.19
2023-06-29T00:37:26.234Z,96378.19
2023-06-29T00:39:54.086Z,96392.22
2023-06-29T00:42:21.285Z,96388.75
2023-06-29T00:44:49.408Z,96391.50
2023-06-29T00:47:16.669Z,96397.16
2023-06-29T00:49:43.850Z,96412.53
2023-06-29T00:52:11.059Z,96428.78
2023-06-29T00:54:38.616Z,96430.19
2023-06-29T00:57:06.145Z,96418.69
2023-06-29T00:59:35.494Z,96418.59
2023-06-29T01:02:04.195Z,96428.63
2023-06-29T01:04:34.405Z,96433.72
2023-06-29T01:07:12.872Z,96431.63
2023-06-29T01:09:41.002Z,96443.50
2023-06-29T01:12:09.049Z,96457.09
2023-06-29T01:14:36.470Z,96454.97
2023-06-29T01:17:03.985Z,96456.13
2023-06-29T01:19:32.704Z,96456.25
2023-06-29T01:22:13.250Z,96457.59
2023-06-29T01:24:41.088Z,96465.44
2023-06-29T01:27:08.711Z,96470.13
2023-06-29T01:29:36.433Z,96494.41
2023-06-29T01:32:04.574Z,96508.13
2023-06-29T01:34:32.787Z,96520.06
2023-06-29T01:37:04.103Z,96526.97
2023-06-29T01:39:36.628Z,96530.72
2023-06-29T01:42:04.527Z,96540.22
2023-06-29T01:44:31.644Z,96543.78
2023-06-29T01:46:59.579Z,96541.34
2023-06-29T01:49:27.087Z,96552.09
2023-06-29T01:51:54.222Z,96558.84
2023-06-29T01:54:21.391Z,96560.47
2023-06-29T01:56:48.537Z,96572.06
2023-06-29T01:59:15.753Z,96573.47
2023-06-29T02:01:42.922Z,96570.22
2023-06-29T02:04:10.060Z,96569.16
2023-06-29T02:06:37.181Z,96561.84
2023-06-29T02:09:05.296Z,96569.16
2023-06-29T02:11:32.397Z,96567.53
2023-06-29T02:13:59.511Z,96566.50
2023-06-29T02:16:26.704Z,96563.28
2023-06-29T02:18:53.826Z,96567.59
2023-06-29T02:21:21.509Z,96571.38
2023-06-29T02:23:48.667Z,96556.81
2023-06-29T02:26:15.789Z,96565.16
2023-06-29T02:28:42.853Z,96573.25
2023-06-29T02:31:09.952Z,96566.78
2023-06-29T02:33:37.296Z,96568.16
2023-06-29T02:36:04.748Z,96572.50
2023-06-29T02:38:32.020Z,96583.56
2023-06-29T02:40:59.383Z,96576.25
2023-06-29T02:43:26.446Z,96570.88
2023-06-29T02:45:54.689Z,96566.00
2023-06-29T02:48:23.155Z,96564.94
2023-06-29T02:50:50.277Z,96562.50
2023-06-29T02:53:17.784Z,96551.16
2023-06-29T02:55:45.114Z,96558.97
2023-06-29T02:58:12.456Z,96558.75
2023-06-29T03:00:39.641Z,96558.44
2023-06-29T03:03:06.790Z,96553.56
2023-06-29T03:05:33.997Z,96549.78
2023-06-29T03:08:03.682Z,96531.44
2023-06-29T03:10:32.679Z,96528.53
2023-06-29T03:12:59.868Z,96535.25
2023-06-29T03:15:27.015Z,96545.25
2023-06-29T03:17:54.190Z,96554.16
2023-06-29T03:20:21.347Z,96575.22
2023-06-29T03:22:48.448Z,96577.09
2023-06-29T03:25:15.573Z,96583.03
2023-06-29T03:27:42.679Z,96596.56
2023-06-29T03:30:10.053Z,96596.81
2023-06-29T03:32:37.200Z,96596.00
2023-06-29T03:35:05.123Z,96598.72
2023-06-29T03:37:32.219Z,96588.69
2023-06-29T03:39:59.303Z,96598.19
2023-06-29T03:42:26.620Z,96594.09
2023-06-29T03:44:53.725Z,96615.72
2023-06-29T03:47:20.944Z,96619.78
2023-06-29T03:49:48.376Z,96610.31
2023-06-29T03:52:15.487Z,96591.69
2023-06-29T03:54:42.624Z,96586.53
2023-06-29T03:57:09.800Z,96575.19
2023-06-29T03:59:36.971Z,96558.38
2023-06-29T04:02:05.020Z,96536.72
2023-06-29T04:04:32.364Z,96520.50
2023-06-29T04:06:59.560Z,96508.84
2023-06-29T04:09:26.663Z,96485.56
2023-06-29T04:11:53.781Z,96487.09
2023-06-29T04:14:20.916Z,96489.19
2023-06-29T04:16:48.052Z,96472.13
2023-06-29T04:19:17.068Z,96473.03
2023-06-29T04:21:44.285Z,96466.09
2023-06-29T04:24:11.466Z,96446.47
2023-06-29T04:26:39.746Z,96432.50
2023-06-29T04:29:09.861Z,96419.16
2023-06-29T04:31:36.991Z,96416.38
2023-06-29T04:34:04.277Z,96407.78
2023-06-29T04:36:31.422Z,96407.78
2023-06-29T04:38:58.597Z,96404.94
2023-06-29T04:41:32.393Z,96390.13
2023-06-29T04:44:00.423Z,96381.97
2023-06-29T04:46:29.412Z,96368.72
2023-06-29T04:48:56.718Z,96365.91
2023-06-29T04:51:23.886Z,96357.25
2023-06-29T04:53:51.013Z,96365.13
2023-06-29T04:56:18.886Z,96361.94
2023-06-29T04:58:46.075Z,96366.91
2023-06-29T05:01:13.288Z,96356.53
2023-06-29T05:03:40.433Z,96361.47
2023-06-29T05:06:07.542Z,96371.81
2023-06-29T05:08:34.675Z,96390.41
2023-06-29T05:11:01.872Z,96403.28
2023-06-29T05:13:29.053Z,96435.03
2023-06-29T05:15:56.184Z,96464.00
2023-06-29T05:18:23.232Z,96448.97
2023-06-29T05:20:50.328Z,96358.31
2023-06-29T05:23:17.459Z,96264.16
2023-06-29T05:25:44.834Z,96174.78
2023-06-29T05:28:12.940Z,96139.31
2023-06-29T05:30:40.124Z,96134.41
2023-06-29T05:33:07.346Z,96138.78
2023-06-29T05:35:35.629Z,96168.53
2023-06-29T05:38:02.955Z,96191.00
2023-06-29T05:40:30.377Z,96222.75
2023-06-29T05:42:57.476Z,96238.16
2023-06-29T05:45:24.634Z,96243.47
2023-06-29T05:47:51.829Z,96276.72
2023-06-29T05:50:21.588Z,96274.50
2023-06-29T05:52:50.988Z,96279.13
2023-06-29T05:55:20.055Z,96275.31
2023-06-29T05:57:47.161Z,96266.56
2023-06-29T06:00:14.532Z,96266.16
2023-06-29T06:02:45.311Z,96272.38
2023-06-29T06:05:12.457Z,96261.47
2023-06-29T06:07:40.520Z,96245.78
2023-06-29T06:10:07.799Z,96255.41
2023-06-29T06:12:34.932Z,96250.72
2023-06-29T06:15:02.133Z,96225.06
2023-06-29T06:17:29.391Z,96211.16
2023-06-29T06:19:56.682Z,96198.03
2023-06-29T06:22:23.787Z,96171.75
2023-06-29T06:24:50.937Z,96159.94
2023-06-29T06:27:18.094Z,96124.25
2023-06-29T06:29:45.247Z,96121.47
2023-06-29T06:32:12.604Z,96129.50
2023-06-29T06:34:39.855Z,96115.13
2023-06-29T06:37:07.527Z,96104.25
2023-06-29T06:39:34.624Z,96084.34
2023-06-29T06:42:01.794Z,96086.56
2023-06-29T06:44:29.674Z,96080.03
2023-06-29T06:46:56.794Z,96068.34
2023-06-29T06:49:24.158Z,96062.94
2023-06-29T06:51:51.534Z,96053.41
2023-06-29T06:54:21.644Z,96053.03
2023-06-29T06:56:49.666Z,96033.53
2023-06-29T06:59:16.952Z,96017.59
2023-06-29T07:01:44.227Z,96015.28
2023-06-29T07:04:12.214Z,96016.78
2023-06-29T07:06:39.384Z,96007.97
2023-06-29T07:09:08.265Z,96005.28
2023-06-29T07:11:37.380Z,95994.13
2023-06-29T07:14:04.573Z,95995.28
2023-06-29T07:16:31.883Z,95991.47
2023-06-29T07:21:35.676Z,95982.25
2023-06-29T07:24:07.026Z,95978.97
2023-06-29T07:26:35.912Z,95974.41
2023-06-29T07:29:04.568Z,95971.19
2023-06-29T07:31:31.811Z,95969.81
2023-06-29T07:33:59.008Z,95947.88
2023-06-29T07:36:26.888Z,95954.84
2023-06-29T07:38:54.190Z,95937.13
2023-06-29T07:41:22.196Z,95940.34
2023-06-29T07:43:51.579Z,95923.28
2023-06-29T07:46:18.735Z,95928.41
2023-06-29T07:48:45.954Z,95920.69
2023-06-29T07:51:13.152Z,95930.75
2023-06-29T07:53:40.252Z,95920.03
2023-06-29T07:56:07.386Z,95922.44
2023-06-29T08:01:04.576Z,95906.13
2023-06-29T08:03:33.227Z,95908.75
2023-06-29T08:08:32.095Z,95914.69
2023-06-29T08:11:00.296Z,95910.28
2023-06-29T08:13:28.184Z,95907.28
2023-06-29T08:15:55.260Z,95899.25
2023-06-29T08:18:22.389Z,95902.22
2023-06-29T08:20:49.567Z,95905.31
2023-06-29T08:23:16.634Z,95899.75
2023-06-29T08:25:43.991Z,95894.09
2023-06-29T08:28:11.150Z,95887.66
2023-06-29T08:30:38.913Z,95879.50
2023-06-29T08:33:06.128Z,95878.19
2023-06-29T08:35:34.200Z,95877.94
2023-06-29T08:38:01.305Z,95879.16
2023-06-29T08:40:32.504Z,95873.19
2023-06-29T08:42:59.664Z,95882.56
2023-06-29T08:45:26.736Z,95879.34
2023-06-29T08:47:54.496Z,95867.88
2023-06-29T08:50:25.059Z,95857.19
2023-06-29T08:53:17.584Z,95854.16
2023-06-29T08:55:45.179Z,95869.91
2023-06-29T08:58:12.924Z,95864.50
2023-06-29T09:00:41.404Z,95856.31
2023-06-29T09:03:09.769Z,95853.94
2023-06-29T09:05:37.383Z,95852.78
2023-06-29T09:08:04.778Z,95856.44
2023-06-29T09:10:32.599Z,95854.03
2023-06-29T09:13:00.120Z,95847.56
2023-06-29T09:15:28.685Z,95842.91
2023-06-29T09:17:56.699Z,95846.03
2023-06-29T09:20:26.193Z,95843.56
2023-06-29T09:22:53.538Z,95845.00
2023-06-29T09:25:33.150Z,95842.34
2023-06-29T09:28:02.117Z,95839.50
2023-06-29T09:30:34.569Z,95847.22
2023-06-29T09:33:09.146Z,95843.22
2023-06-29T09:35:37.898Z,95836.81
2023-06-29T09:38:05.051Z,95832.06
2023-06-29T09:40:32.383Z,95832.53
2023-06-29T09:43:15.277Z,95827.81
2023-06-29T09:45:42.381Z,95824.75
2023-06-29T09:50:49.763Z,95822.44
2023-06-29T09:53:17.505Z,95828.09
2023-06-29T09:55:47.417Z,95824.31
2023-06-29T09:58:15.243Z,95816.66
2023-06-29T10:00:42.692Z,95818.81
2023-06-29T10:03:10.417Z,95812.41
2023-06-29T10:05:38.518Z,95816.78
2023-06-29T10:08:08.023Z,95816.19
2023-06-29T10:10:36.117Z,95808.63
2023-06-29T10:13:05.850Z,95802.63
2023-06-29T10:15:35.248Z,95809.41
2023-06-29T10:18:11.489Z,95802.81
2023-06-29T10:20:41.424Z,95807.38
2023-06-29T10:23:09.490Z,95805.41
2023-06-29T10:25:38.112Z,95797.63
2023-06-29T10:28:05.891Z,95802.22
2023-06-29T10:30:44.423Z,95801.41
2023-06-29T10:33:11.998Z,95793.56
2023-06-29T10:35:39.941Z,95790.84
2023-06-29T10:38:12.343Z,95789.25
2023-06-29T10:40:46.947Z,95784.13
2023-06-29T10:43:14.418Z,95787.69
2023-06-29T10:45:41.623Z,95789.25
2023-06-29T10:48:10.182Z,95788.03
2023-06-29T10:50:41.256Z,95791.34
2023-06-29T10:53:09.238Z,95784.31
2023-06-29T10:55:40.328Z,95781.91
2023-06-29T10:58:28.087Z,95782.09
2023-06-29T11:00:55.226Z,95778.16
2023-06-29T11:03:23.466Z,95787.56
2023-06-29T11:05:51.744Z,95787.16
2023-06-29T11:08:20.733Z,95779.34
2023-06-29T11:10:48.181Z,95775.22
2023-06-29T11:13:15.407Z,95771.44
2023-06-29T11:15:42.515Z,95767.91
2023-06-29T11:18:10.262Z,95767.09
2023-06-29T11:20:38.726Z,95760.75
2023-06-29T11:23:06.221Z,95762.34
2023-06-29T11:25:33.889Z,95756.00
2023-06-29T11:28:02.072Z,95756.75
2023-06-29T11:30:29.277Z,95753.59
2023-06-29T11:32:56.454Z,95749.22
2023-06-29T11:35:23.861Z,95756.72
2023-06-29T11:37:52.184Z,95746.81
2023-06-29T11:40:22.922Z,95753.22
2023-06-29T11:42:50.558Z,95745.72
2023-06-29T11:45:18.167Z,95737.84
2023-06-29T11:47:45.611Z,95741.00
2023-06-29T11:50:12.922Z,95739.81
2023-06-29T11:52:41.175Z,95738.06
2023-06-29T11:55:09.866Z,95733.34
2023-06-29T11:57:38.188Z,95728.53
2023-06-29T12:00:26.061Z,95728.31
2023-06-29T12:02:53.194Z,95723.19
2023-06-29T12:05:20.394Z,95721.19
2023-06-29T12:07:48.081Z,95728.53
2023-06-29T12:10:26.430Z,95719.22
2023-06-29T12:12:57.335Z,95715.44
2023-06-29T12:15:26.004Z,95716.38
2023-06-29T12:18:01.178Z,95715.66
2023-06-29T12:20:28.700Z,95711.31
2023-06-29T12:22:56.089Z,95712.50
2023-06-29T12:25:23.893Z,95715.44
2023-06-29T12:27:51.610Z,95702.94
2023-06-29T12:30:22.096Z,95698.69
2023-06-29T12:32:50.758Z,95703.38
2023-06-29T12:35:18.780Z,95706.13
2023-06-29T12:37:46.231Z,95708.00
2023-06-29T12:40:15.954Z,95698.13
2023-06-29T12:42:43.084Z,95693.78
2023-06-29T12:45:10.601Z,95698.13
2023-06-29T12:47:38.985Z,95699.34
2023-06-29T12:50:06.628Z,95685.53
2023-06-29T12:52:33.784Z,95691.88
2023-06-29T12:55:01.114Z,95687.50
2023-06-29T12:57:29.717Z,95677.41
2023-06-29T12:59:57.631Z,95685.72
2023-06-29T13:02:25.156Z,95678.34
2023-06-29T13:04:52.570Z,95677.59
2023-06-29T13:07:20.864Z,95672.91
2023-06-29T13:09:52.990Z,95675.97
2023-06-29T13:12:20.385Z,95674.16
2023-06-29T13:14:48.272Z,95669.34
2023-06-29T13:17:15.515Z,95674.00
2023-06-29T13:19:43.746Z,95670.91
2023-06-29T13:22:10.911Z,95679.56
2023-06-29T13:24:38.597Z,95661.00
2023-06-29T13:27:06.419Z,95664.88
2023-06-29T13:29:34.776Z,95668.06
2023-06-29T13:32:01.886Z,95653.19
2023-06-29T13:34:29.018Z,95647.59
2023-06-29T13:36:56.354Z,95654.72
2023-06-29T13:39:23.473Z,95647.59
2023-06-29T13:41:50.866Z,95647.28
2023-06-29T13:44:18.290Z,95655.19
2023-06-29T13:46:46.210Z,95651.59
2023-06-29T13:49:13.488Z,95644.88
2023-06-29T13:51:40.589Z,95638.16
2023-06-29T13:54:07.741Z,95646.81
2023-06-29T13:56:38.184Z,95648.84
2023-06-29T13:59:07.875Z,95640.53
2023-06-29T14:01:38.983Z,95635.38
2023-06-29T14:04:07.133Z,95636.59
2023-06-29T14:06:39.080Z,95645.66
2023-06-29T14:09:07.172Z,95637.38
2023-06-29T14:11:34.671Z,95643.31
2023-06-29T14:14:02.005Z,95633.78
2023-06-29T14:16:30.039Z,95636.16
2023-06-29T14:18:58.247Z,95642.88
2023-06-29T14:21:25.556Z,95640.91
2023-06-29T14:23:52.669Z,95630.28
2023-06-29T14:26:19.811Z,95634.22
2023-06-29T14:28:46.906Z,95631.06
2023-06-29T14:31:16.534Z,95629.47
2023-06-29T14:33:44.706Z,95627.09
2023-06-29T14:36:11.877Z,95621.59
2023-06-29T14:38:39.034Z,95627.91
2023-06-29T14:41:06.250Z,95623.13
2023-06-29T14:43:33.394Z,95618.38
2023-06-29T14:46:00.577Z,95616.00
2023-06-29T14:48:27.852Z,95608.44
2023-06-29T14:50:55.065Z,95604.88
2023-06-29T14:53:22.967Z,95605.28
2023-06-29T14:55:50.411Z,95607.25
2023-06-29T14:58:18.017Z,95597.31
2023-06-29T15:00:45.935Z,95597.28
2023-06-29T15:03:13.551Z,95597.00
2023-06-29T15:05:40.838Z,95595.41
2023-06-29T15:08:07.958Z,95587.53
2023-06-29T15:10:35.122Z,95584.34
2023-06-29T15:13:02.237Z,95591.00
2023-06-29T15:15:29.346Z,95580.69
2023-06-29T15:17:57.144Z,95572.41
2023-06-29T15:20:26.526Z,95573.59
2023-06-29T15:22:53.633Z,95582.28
2023-06-29T15:25:20.723Z,95578.66
2023-06-29T15:27:47.847Z,95589.28
2023-06-29T15:30:15.026Z,95576.28
2023-06-29T15:32:42.184Z,95581.00
2023-06-29T15:35:10.148Z,95578.50
2023-06-29T15:37:37.284Z,95580.03
2023-06-29T15:40:05.019Z,95576.06
2023-06-29T15:42:33.247Z,95570.97
2023-06-29T15:45:00.707Z,95571.34
2023-06-29T15:47:28.471Z,95567.38
2023-06-29T15:49:55.707Z,95564.97
2023-06-29T15:52:23.501Z,95569.59
2023-06-29T15:54:50.658Z,95564.97
2023-06-29T15:57:17.847Z,95560.97
2023-06-29T15:59:44.988Z,95555.38
2023-06-29T16:02:12.110Z,95555.81
2023-06-29T16:04:39.553Z,95556.13
2023-06-29T16:07:07.551Z,95550.66
2023-06-29T16:09:35.530Z,95547.44
2023-06-29T16:12:02.727Z,95543.44
2023-06-29T16:14:29.862Z,95534.03
2023-06-29T16:16:57.053Z,95528.09
2023-06-29T16:19:24.510Z,95532.78
2023-06-29T16:21:51.703Z,95527.59
2023-06-29T16:24:19.545Z,95522.78
2023-06-29T16:26:47.145Z,95527.16
2023-06-29T16:29:14.482Z,95525.91
2023-06-29T16:31:44.090Z,95519.22
2023-06-29T16:34:12.463Z,95520.41
2023-06-29T16:36:39.746Z,95515.69
2023-06-29T16:39:06.958Z,95516.81
2023-06-29T16:41:34.165Z,95518.38
2023-06-29T16:44:01.209Z,95515.16
2023-06-29T16:46:28.479Z,95517.16
2023-06-29T16:48:59.583Z,95522.69
2023-06-29T16:51:29.100Z,95521.03
2023-06-29T16:53:57.034Z,95519.44
2023-06-29T16:56:24.195Z,95517.06
2023-06-29T16:58:51.649Z,95509.19
2023-06-29T17:01:18.891Z,95519.69
2023-06-29T17:03:46.208Z,95517.66
2023-06-29T17:06:13.396Z,95521.19
2023-06-29T17:08:41.176Z,95521.06
2023-06-29T17:11:08.503Z,95515.13
2023-06-29T17:13:35.696Z,95518.38
2023-06-29T17:16:03.131Z,95524.63
2023-06-29T17:18:30.406Z,95522.34
2023-06-29T17:20:57.611Z,95513.59
2023-06-29T17:23:24.719Z,95515.88
2023-06-29T17:25:52.024Z,95517.44
2023-06-29T17:28:19.998Z,95517.31
2023-06-29T17:30:47.620Z,95514.16
2023-06-29T17:33:15.133Z,95528.22
2023-06-29T17:35:42.520Z,95519.50
2023-06-29T17:38:09.734Z,95524.88
2023-06-29T17:40:36.852Z,95525.59
2023-06-29T17:43:03.988Z,95522.38
2023-06-29T17:45:31.071Z,95520.31
2023-06-29T17:47:58.359Z,95523.47
2023-06-29T17:50:25.473Z,95521.50
2023-06-29T17:52:52.575Z,95522.97
2023-06-29T17:55:19.685Z,95521.00
2023-06-29T17:57:46.746Z,95522.50
2023-06-29T18:00:16.203Z,95524.34
2023-06-29T18:02:43.541Z,95515.16
2023-06-29T18:05:11.184Z,95511.91
2023-06-29T18:07:38.696Z,95514.56
2023-06-29T18:10:08.157Z,95521.00
2023-06-29T18:12:36.715Z,95519.28
2023-06-29T18:15:05.800Z,95514.84
2023-06-29T18:17:33.246Z,95515.56
2023-06-29T18:20:01.159Z,95515.22
2023-06-29T18:22:28.475Z,95514.75
2023-06-29T18:24:55.591Z,95514.59
2023-06-29T18:27:23.425Z,95510.88
2023-06-29T18:29:50.579Z,95517.78
2023-06-29T18:32:18.922Z,95514.53
2023-06-29T18:34:47.366Z,95525.09
2023-06-29T18:37:14.545Z,95524.47
2023-06-29T18:39:42.155Z,95522.03
2023-06-29T18:42:09.309Z,95514.47
2023-06-29T18:44:36.406Z,95519.97
2023-06-29T18:47:04.284Z,95522.94
2023-06-29T18:49:41.755Z,95517.00
2023-06-29T18:52:17.401Z,95516.47
2023-06-29T18:54:44.764Z,95521.09
2023-06-29T18:57:11.982Z,95520.38
2023-06-29T18:59:39.580Z,95524.56
2023-06-29T19:02:06.919Z,95513.88
2023-06-29T19:04:34.176Z,95513.03
2023-06-29T19:07:01.623Z,95520.00
2023-06-29T19:09:29.369Z,95519.84
2023-06-29T19:11:56.954Z,95513.44
2023-06-29T19:14:24.110Z,95520.81
2023-06-29T19:16:51.321Z,95524.41
2023-06-29T19:19:18.428Z,95527.16
2023-06-29T19:21:49.658Z,95535.97
2023-06-29T19:24:17.722Z,95523.97
2023-06-29T19:26:45.293Z,95525.75
2023-06-29T19:29:12.748Z,95526.91
2023-06-29T19:31:41.877Z,95533.53
2023-06-29T19:34:10.054Z,95534.41
2023-06-29T19:36:37.188Z,95533.47
2023-06-29T19:39:04.544Z,95538.94
2023-06-29T19:41:31.610Z,95540.66
2023-06-29T19:43:58.693Z,95549.91
2023-06-29T19:46:25.842Z,95545.28
2023-06-29T19:48:52.965Z,95547.31
2023-06-29T19:51:20.796Z,95543.97
2023-06-29T19:53:47.980Z,95547.63
2023-06-29T19:56:17.349Z,95552.50
2023-06-29T19:58:44.448Z,95557.25
2023-06-29T20:01:11.645Z,95556.53
2023-06-29T20:03:41.290Z,95560.19
2023-06-29T20:06:09.700Z,95561.41
2023-06-29T20:08:36.873Z,95564.53
2023-06-29T20:11:03.995Z,95567.59
2023-06-29T20:13:31.172Z,95568.47
2023-06-29T20:15:58.336Z,95570.34
2023-06-29T20:18:25.455Z,95574.22
2023-06-29T20:20:52.557Z,95574.41
2023-06-29T20:23:21.537Z,95578.81
2023-06-29T20:25:49.607Z,95572.72
2023-06-29T20:28:16.939Z,95573.25
2023-06-29T20:30:44.718Z,95577.31
2023-06-29T20:33:11.874Z,95565.78
2023-06-29T20:35:38.978Z,95570.22
2023-06-29T20:38:06.027Z,95575.84
2023-06-29T20:40:33.118Z,95577.50
2023-06-29T20:43:00.751Z,95581.03
2023-06-29T20:45:27.907Z,95575.13
2023-06-29T20:50:22.008Z,95575.34
2023-06-29T20:52:49.139Z,95582.41
2023-06-29T20:55:16.714Z,95574.75
2023-06-29T20:57:43.855Z,95576.81
2023-06-29T21:00:13.521Z,95574.34
2023-06-29T21:02:40.931Z,95564.91
2023-06-29T21:05:08.397Z,95570.88
2023-06-29T21:07:36.644Z,95577.66
2023-06-29T21:10:04.033Z,95578.00
2023-06-29T21:12:31.403Z,95581.50
2023-06-29T21:14:58.721Z,95576.41
2023-06-29T21:17:26.233Z,95578.22
2023-06-29T21:19:53.463Z,95568.50
2023-06-29T21:22:20.761Z,95572.03
2023-06-29T21:24:48.284Z,95562.19
2023-06-29T21:27:18.662Z,95575.97
2023-06-29T21:29:47.253Z,95580.38
2023-06-29T21:32:15.397Z,95575.72
2023-06-29T21:34:42.674Z,95574.56
2023-06-29T21:37:10.072Z,95578.78
2023-06-29T21:39:37.231Z,95571.19
2023-06-29T21:42:04.676Z,95581.59
2023-06-29T21:44:31.844Z,95579.94
2023-06-29T21:47:01.414Z,95569.44
2023-06-29T21:49:28.672Z,95571.72
2023-06-29T21:51:55.833Z,95574.91
2023-06-29T21:54:22.931Z,95570.31
2023-06-29T21:56:52.737Z,95572.47
2023-06-29T21:59:19.908Z,95574.78
2023-06-29T22:01:47.078Z,95575.56
2023-06-29T22:04:14.494Z,95574.84
2023-06-29T22:06:41.636Z,95570.09
2023-06-29T22:09:08.761Z,95568.31
2023-06-29T22:11:39.757Z,95575.59
2023-06-29T22:14:07.848Z,95575.94
2023-06-29T22:16:35.102Z,95578.88
2023-06-29T22:19:02.270Z,95573.63
2023-06-29T22:21:29.968Z,95577.84
2023-06-29T22:23:57.199Z,95579.34
2023-06-29T22:26:24.577Z,95590.72
2023-06-29T22:28:51.802Z,95579.47
2023-06-29T22:31:19.458Z,95586.66
2023-06-29T22:33:47.231Z,95597.47
2023-06-29T22:36:17.794Z,95595.28
2023-06-29T22:38:44.982Z,95594.47
2023-06-29T22:41:12.312Z,95597.56
2023-06-29T22:43:40.543Z,95616.25
2023-06-29T22:46:07.801Z,95622.94
2023-06-29T22:48:38.630Z,95623.78
2023-06-29T22:51:06.062Z,95621.41
2023-06-29T22:53:33.335Z,95626.97
2023-06-29T22:56:00.411Z,95634.94
2023-06-29T22:58:29.009Z,95637.34
2023-06-29T23:00:56.378Z,95637.00
2023-06-29T23:03:24.276Z,95638.59
2023-06-29T23:05:51.752Z,95640.84
2023-06-29T23:08:18.907Z,95644.16
2023-06-29T23:10:47.736Z,95637.91
2023-06-29T23:13:17.057Z,95643.81
2023-06-29T23:15:45.251Z,95633.56
2023-06-29T23:18:13.182Z,95631.06
2023-06-29T23:20:45.111Z,95633.13
2023-06-29T23:23:16.283Z,95645.75
2023-06-29T23:25:43.780Z,95645.84
2023-06-29T23:28:11.153Z,95643.72
2023-06-29T23:30:38.311Z,95643.25
2023-06-29T23:33:09.444Z,95656.31
2023-06-29T23:35:38.524Z,95667.25
2023-06-29T23:38:05.753Z,95671.94
2023-06-29T23:40:34.252Z,95682.28
2023-06-29T23:43:05.436Z,95681.59
2023-06-29T23:45:36.611Z,95692.88
2023-06-29T23:48:04.468Z,95694.34
2023-06-29T23:50:32.140Z,95693.69
2023-06-29T23:52:59.288Z,95701.53
2023-06-29T23:55:28.968Z,95707.31
2023-06-29T23:57:56.127Z,95721.53
